Amf Ohare, Illinois
Current Conditions -  °F | °C
As of 7:51 AM on Friday 24 Oct 2014 (Local Time) from KORD Reporting Station
Overcast Overcast  
Wind Chill: 52°   Ceiling: 2900
Heat Index: 52°   Visibility: 10mi
Dew Point: 46°   Wind: 5mph
Humidity: 80%   Direction: 290°WNW
Pressure: 30.06"   Gusts: NA
Location:  41.968°N, 87.8912°W
Report Text: KORD 241251Z 29004KT 10SM OVC029 11/08 A3006 RMK AO2 SLP179 T01110078 $
Loading
Personal Weather Stations






























Interactive Weather Map
Tropical Storm Tracking
New forecast layout! Learn more

10-Day Weather Forecast

Advertisements
Track Severe Weather on mobile